Creek Data

    Home     View Charts     View Raw Data     Messages

ID Distance Battery Voltage Battery Current Internal Temp Internal Humidity External Temp Solar Input rssi snr Time Stamp Record
34688 15.7 4.01 5 74 37 69 5.1 -76 8 03/11/2025 01:30 PM 16427
34687 15.6 4.00 5 73 37 68 5.1 -73 8 03/11/2025 01:15 PM 16426
34686 15.6 4.00 5 73 36 66 5.1 -73 7 03/11/2025 01:00 PM 16425
34685 15.6 4.00 5 72 37 68 5.1 -74 8 03/11/2025 12:45 PM 16424
34684 15.6 4.02 5 72 36 68 5.1 -75 7 03/11/2025 12:30 PM 16423
34683 15.6 4.00 5 71 36 66 5.1 -76 7 03/11/2025 12:15 PM 16422
34682 15.7 4.00 0 71 36 64 5.1 -76 8 03/11/2025 12:00 PM 16421
34681 15.6 4.00 0 69 36 68 5.1 -75 7 03/11/2025 11:45 AM 16420
34680 15.7 4.00 0 69 35 66 5.1 -77 8 03/11/2025 11:30 AM 16419
34679 15.7 4.13 0 68 35 68 5.1 -77 8 03/11/2025 11:15 AM 16418
34678 15.7 4.00 6 66 35 68 5.1 -76 7 03/11/2025 11:00 AM 16417
34677 15.7 4.01 5 64 34 66 5.1 -77 7 03/11/2025 10:45 AM 16416
34676 15.8 4.00 0 62 34 65 5.1 -76 7 03/11/2025 10:30 AM 16415
34675 15.8 4.00 0 60 34 61 5.1 -77 8 03/11/2025 10:15 AM 16414
34674 0.0 4.00 0 57 34 60 5.1 -76 8 03/11/2025 10:01 AM 16413
34673 15.7 4.00 6 55 35 58 5.1 -76 7 03/11/2025 09:45 AM 16412
34672 15.7 4.00 6 53 35 57 5.1 -77 8 03/11/2025 09:30 AM 16411
34671 15.6 4.00 6 50 35 52 5.1 -77 8 03/11/2025 09:15 AM 16410
34670 15.6 4.00 6 48 36 51 5.1 -77 7 03/11/2025 09:00 AM 16409
34669 15.6 4.00 5 46 36 48 5.1 -77 8 03/11/2025 08:45 AM 16408
34668 15.5 4.01 5 45 36 48 5.1 -77 8 03/11/2025 08:30 AM 16407
34667 15.5 4.12 36 43 36 49 4.5 -76 8 03/11/2025 08:15 AM 16406
34666 15.5 4.01 0 42 36 46 4.5 -76 8 03/11/2025 08:00 AM 16405
34665 15.4 3.99 0 42 37 45 4.5 -76 9 03/11/2025 07:45 AM 16404
34664 15.5 3.91 -9 40 38 44 4.5 -76 8 03/11/2025 07:30 AM 16403